Time;durP1;ratioP1;P1;durP2;ratioP2;P2;SDS_P1;SDS_P2;PMS_P1;PMS_P2;Temp;Humidity;BMP_temperature;BMP_pressure;BME280_temperature;BME280_humidity;BME280_pressure;Samples;Min_cycle;Max_cycle;Signal;HPM_P1;HPM_P2
2023/02/21 02:15:20;;;;;;;16.98;12.50;;;;;;;8.27;100.00;100362.28;5037183;28;20080;-64
2023/02/21 02:18:15;;;;;;;14.52;11.65;;;;;;;8.31;100.00;100348.09;5029723;28;20087;-65
2023/02/21 02:21:19;;;;;;;16.52;12.60;;;;;;;8.30;100.00;100356.91;5044142;28;20132;-65
2023/02/21 02:24:11;;;;;;;13.20;11.65;;;;;;;8.29;100.00;100348.19;5038483;28;20136;-64
2023/02/21 02:27:12;;;;;;;17.83;13.25;;;;;;;8.29;100.00;100348.19;5034639;28;20128;-64
2023/02/21 02:30:06;;;;;;;16.42;12.23;;;;;;;8.33;100.00;100346.22;5038217;28;20465;-64
2023/02/21 02:33:03;;;;;;;15.05;12.32;;;;;;;8.35;100.00;100333.88;5026024;28;20092;-66
2023/02/21 02:35:34;;;;;;;17.23;12.50;;;;;;;8.32;100.00;100332.25;5042264;28;20057;-66
2023/02/21 02:38:24;;;;;;;15.70;12.02;;;;;;;8.37;100.00;100345.16;5037782;28;20476;-64
2023/02/21 02:40:58;;;;;;;15.38;12.27;;;;;;;8.42;100.00;100337.03;5024097;28;20091;-64
2023/02/21 02:43:35;;;;;;;14.90;12.40;;;;;;;8.42;100.00;100326.56;5022809;28;20622;-65
2023/02/21 02:46:10;;;;;;;15.77;11.90;;;;;;;8.43;100.00;100330.88;5022314;28;20494;-65
2023/02/21 02:48:42;;;;;;;20.23;12.93;;;;;;;8.44;100.00;100324.69;5025413;28;20536;-65
2023/02/21 02:51:12;;;;;;;15.70;12.43;;;;;;;8.47;100.00;100332.41;5026395;28;20149;-65
2023/02/21 02:53:40;;;;;;;15.98;12.45;;;;;;;8.46;100.00;100357.78;5036708;28;20100;-65
2023/02/21 02:56:10;;;;;;;17.58;13.27;;;;;;;8.46;100.00;100328.91;5021537;28;20153;-64
2023/02/21 02:58:48;;;;;;;15.60;13.05;;;;;;;8.45;100.00;100342.97;5032845;28;20080;-65
2023/02/21 03:01:43;;;;;;;22.05;13.55;;;;;;;8.52;100.00;100328.59;5029482;28;20056;-66
2023/02/21 03:04:32;;;;;;;17.70;13.55;;;;;;;8.51;100.00;100329.53;5021850;28;20063;-64
2023/02/21 03:07:17;;;;;;;16.75;12.20;;;;;;;8.51;100.00;100329.53;5038539;28;20489;-65
2023/02/21 03:09:53;;;;;;;17.63;13.82;;;;;;;8.54;100.00;100326.72;5017729;28;20091;-64
2023/02/21 03:12:29;;;;;;;18.90;13.65;;;;;;;8.52;100.00;100333.84;5043199;28;20144;-66
2023/02/21 03:15:05;;;;;;;17.10;13.93;;;;;;;8.54;100.00;100357.38;5028962;28;20144;-65
2023/02/21 03:17:37;;;;;;;17.42;13.15;;;;;;;8.53;100.00;100327.66;5043660;28;20060;-65
2023/02/21 03:20:06;;;;;;;17.33;12.90;;;;;;;8.57;100.00;100342.31;5023166;28;20153;-65
2023/02/21 03:22:33;;;;;;;18.35;12.95;;;;;;;8.61;100.00;100324.63;5028218;28;20048;-65
2023/02/21 03:25:01;;;;;;;15.20;11.95;;;;;;;8.62;100.00;100329.78;5044355;28;20140;-64
2023/02/21 03:27:29;;;;;;;16.00;12.85;;;;;;;8.61;100.00;100330.72;5040272;28;20132;-64
2023/02/21 03:30:00;;;;;;;14.70;11.45;;;;;;;8.64;100.00;100334.94;5043939;28;20092;-64
2023/02/21 03:34:58;;;;;;;15.82;12.50;;;;;;;8.70;100.00;100333.75;5025740;28;20123;-64
2023/02/21 03:37:35;;;;;;;15.18;11.77;;;;;;;8.74;100.00;100328.25;5041080;28;20132;-65
2023/02/21 03:40:05;;;;;;;14.88;11.73;;;;;;;8.74;100.00;100336.13;5039059;28;20145;-65
2023/02/21 03:42:32;;;;;;;14.85;11.43;;;;;;;8.77;100.00;100335.94;5038610;28;20055;-65
2023/02/21 03:45:00;;;;;;;14.40;12.05;;;;;;;8.77;100.00;100335.09;5043619;28;20151;-64
2023/02/21 03:47:27;;;;;;;17.08;11.88;;;;;;;8.85;100.00;100325.88;5037118;28;20136;-65
2023/02/21 03:49:54;;;;;;;13.98;11.50;;;;;;;8.84;100.00;100349.59;5036219;28;20133;-65
2023/02/21 03:52:21;;;;;;;15.48;12.00;;;;;;;8.83;100.00;100329.53;5034901;28;20041;-64
2023/02/21 03:54:48;;;;;;;16.15;11.43;;;;;;;8.86;100.00;100330.19;5041368;28;20136;-64
2023/02/21 03:57:16;;;;;;;13.82;10.70;;;;;;;8.83;100.00;100350.53;5041860;28;20174;-65
2023/02/21 03:59:44;;;;;;;14.10;10.98;;;;;;;8.81;100.00;100340.09;5040817;28;20079;-65
2023/02/21 04:02:11;;;;;;;15.25;10.95;;;;;;;8.84;100.00;100336.47;5037645;28;20132;-65
2023/02/21 04:04:38;;;;;;;15.13;10.90;;;;;;;8.92;100.00;100350.00;5032618;28;20502;-66
2023/02/21 04:07:05;;;;;;;14.77;10.73;;;;;;;8.88;100.00;100362.44;5038906;28;20052;-66
2023/02/21 04:09:32;;;;;;;14.52;10.88;;;;;;;8.89;100.00;100360.66;5042638;28;20059;-65
2023/02/21 04:12:00;;;;;;;17.27;11.00;;;;;;;8.93;100.00;100356.94;5039150;28;20124;-65
2023/02/21 04:14:27;;;;;;;15.20;10.73;;;;;;;8.92;100.00;100355.25;5043048;28;20512;-65
2023/02/21 04:16:54;;;;;;;13.35;10.40;;;;;;;8.98;100.00;100349.66;5035066;28;20091;-65
2023/02/21 04:19:21;;;;;;;12.50;10.30;;;;;;;8.95;100.00;100355.06;5038484;28;20180;-65
2023/02/21 04:21:49;;;;;;;13.27;10.25;;;;;;;9.01;100.00;100346.84;5037249;28;20181;-65
2023/02/21 04:24:16;;;;;;;12.90;9.50;;;;;;;9.00;100.00;100360.06;5036994;28;20053;-66
2023/02/21 04:26:43;;;;;;;12.43;9.98;;;;;;;9.10;100.00;100348.13;5043886;28;20049;-65
2023/02/21 04:29:10;;;;;;;11.60;9.82;;;;;;;9.14;100.00;100370.66;5032783;28;20049;-65
2023/02/21 04:31:38;;;;;;;12.68;10.30;;;;;;;9.09;100.00;100357.75;5034405;28;20079;-65
2023/02/21 04:34:05;;;;;;;11.65;9.85;;;;;;;9.12;100.00;100367.25;5037732;28;20554;-65
2023/02/21 04:36:39;;;;;;;12.30;10.00;;;;;;;9.13;100.00;100363.69;5046373;28;20059;-64
2023/02/21 04:39:06;;;;;;;13.88;10.52;;;;;;;9.18;100.00;100379.16;5039737;28;20127;-64
2023/02/21 04:41:34;;;;;;;13.05;10.00;;;;;;;9.14;100.00;100370.66;5040909;28;20136;-65
2023/02/21 04:44:01;;;;;;;15.45;10.52;;;;;;;9.10;100.00;100364.72;5043824;28;20059;-65
2023/02/21 04:46:28;;;;;;;14.05;10.70;;;;;;;9.13;100.00;100364.53;5041048;28;20048;-65
2023/02/21 04:48:55;;;;;;;13.95;9.80;;;;;;;9.11;100.00;100355.91;5035335;28;20184;-68
2023/02/21 04:51:24;;;;;;;11.88;8.98;;;;;;;9.11;100.00;100358.53;5040486;28;20140;-65
2023/02/21 04:53:52;;;;;;;13.82;10.20;;;;;;;9.14;100.00;100383.78;5027973;28;20423;-65
2023/02/21 04:56:22;;;;;;;14.35;9.95;;;;;;;9.08;100.00;100369.19;5032631;28;20141;-65
2023/02/21 04:58:49;;;;;;;14.95;10.40;;;;;;;9.10;100.00;100356.00;5035556;28;20124;-65
2023/02/21 05:01:17;;;;;;;14.80;10.75;;;;;;;9.08;100.00;100363.94;5034023;28;20144;-65
2023/02/21 05:03:45;;;;;;;15.55;10.00;;;;;;;9.03;100.00;100375.66;5036822;28;20255;-64
2023/02/21 05:06:20;;;;;;;16.23;11.55;;;;;;;8.94;100.00;100366.50;5039632;28;20051;-64
2023/02/21 05:08:47;;;;;;;13.75;10.48;;;;;;;8.95;100.00;100373.44;5036593;28;20135;-65
2023/02/21 05:11:16;;;;;;;17.63;12.55;;;;;;;8.89;100.00;100376.41;5022801;28;20450;-65
2023/02/21 05:13:44;;;;;;;15.85;12.20;;;;;;;8.90;100.00;100366.75;5042954;28;20144;-65
2023/02/21 05:16:11;;;;;;;16.38;13.07;;;;;;;8.88;100.00;100369.47;5034458;28;20562;-65
2023/02/21 05:18:41;;;;;;;16.42;13.02;;;;;;;8.81;100.00;100358.47;5035032;28;20051;-65
2023/02/21 05:21:09;;;;;;;17.40;13.48;;;;;;;8.77;100.00;100374.47;5038558;28;20772;-65
2023/02/21 05:23:38;;;;;;;22.25;14.25;;;;;;;8.77;100.00;100358.72;5037478;28;20151;-65
2023/02/21 05:26:09;;;;;;;18.52;13.95;;;;;;;8.76;100.00;100378.03;5035464;28;20065;-65
2023/02/21 05:28:37;;;;;;;18.83;13.63;;;;;;;8.76;100.00;100364.91;5033631;28;20593;-65
2023/02/21 05:31:05;;;;;;;15.82;12.90;;;;;;;8.71;100.00;100380.06;5039346;28;20067;-65
2023/02/21 05:33:32;;;;;;;17.65;12.27;;;;;;;8.67;100.00;100383.78;5039513;28;20087;-65
2023/02/21 05:36:01;;;;;;;17.98;13.68;;;;;;;8.70;100.00;100381.00;5038592;28;20053;-64
2023/02/21 05:38:28;;;;;;;18.70;13.10;;;;;;;8.68;100.00;100380.22;5036580;28;20136;-65
2023/02/21 05:40:55;;;;;;;20.30;13.95;;;;;;;8.64;100.00;100379.53;5036951;28;20057;-65
2023/02/21 05:43:22;;;;;;;16.02;12.18;;;;;;;8.65;100.00;100381.25;5042589;28;20102;-64
2023/02/21 05:45:49;;;;;;;14.82;11.93;;;;;;;8.71;100.00;100394.03;5038549;28;20255;-65
2023/02/21 05:48:16;;;;;;;15.80;11.25;;;;;;;8.67;100.00;100389.03;5041297;28;20144;-65
2023/02/21 05:50:44;;;;;;;15.25;12.15;;;;;;;8.63;100.00;100396.22;5036128;28;20076;-64
2023/02/21 05:53:11;;;;;;;17.70;12.50;;;;;;;8.60;100.00;100389.38;5013583;28;20055;-64
2023/02/21 05:55:38;;;;;;;14.98;12.65;;;;;;;8.58;100.00;100391.22;5035943;28;20131;-64
2023/02/21 05:58:05;;;;;;;15.48;12.07;;;;;;;8.59;100.00;100392.06;5036722;28;20311;-66
2023/02/21 06:00:33;;;;;;;15.40;12.00;;;;;;;8.60;100.00;100404.25;5023596;28;20064;-65
2023/02/21 06:03:00;;;;;;;13.20;10.07;;;;;;;8.59;100.00;100411.28;5036903;28;20130;-65
2023/02/21 06:05:30;;;;;;;15.90;11.07;;;;;;;8.60;100.00;100413.00;5038914;28;20136;-65
2023/02/21 06:07:58;;;;;;;14.52;11.10;;;;;;;8.59;100.00;100413.06;5041771;28;20059;-65
2023/02/21 06:10:25;;;;;;;17.15;12.10;;;;;;;8.59;100.00;100419.16;5040369;28;20045;-65
2023/02/21 06:12:52;;;;;;;16.08;11.40;;;;;;;8.66;100.00;100424.09;5033083;28;20052;-65
2023/02/21 06:15:19;;;;;;;15.25;11.80;;;;;;;8.61;100.00;100429.59;5043670;28;20053;-63
2023/02/21 06:17:47;;;;;;;13.05;10.38;;;;;;;8.58;100.00;100429.75;5039393;28;20045;-63
2023/02/21 06:20:15;;;;;;;15.23;11.90;;;;;;;8.56;100.00;100437.69;5042189;28;20184;-64
2023/02/21 06:22:43;;;;;;;13.25;11.00;;;;;;;8.58;100.00;100442.84;5039952;28;20375;-64
2023/02/21 06:25:10;;;;;;;15.65;11.43;;;;;;;8.58;100.00;100441.06;5033714;28;20145;-64
2023/02/21 06:27:38;;;;;;;18.08;12.10;;;;;;;8.62;100.00;100434.75;5043826;28;20072;-64
2023/02/21 06:30:06;;;;;;;12.75;9.82;;;;;;;8.65;100.00;100440.78;5038828;28;20496;-64
2023/02/21 06:32:33;;;;;;;14.88;11.05;;;;;;;8.64;100.00;100445.16;5040458;28;20045;-64
2023/02/21 06:35:00;;;;;;;12.60;9.90;;;;;;;8.63;100.00;100444.31;5046124;28;20116;-64
2023/02/21 06:37:27;;;;;;;12.27;9.77;;;;;;;8.61;100.00;100440.94;5041058;28;20805;-64
2023/02/21 06:39:55;;;;;;;17.20;10.57;;;;;;;8.64;100.00;100453.00;5047425;28;20131;-64
2023/02/21 06:42:23;;;;;;;16.42;10.07;;;;;;;8.65;100.00;100453.88;5042195;28;20132;-64
2023/02/21 06:44:51;;;;;;;12.82;8.85;;;;;;;8.63;100.00;100457.41;5042224;28;20057;-66
2023/02/21 06:47:18;;;;;;;14.68;10.52;;;;;;;8.63;100.00;100461.81;5038647;28;20271;-66
2023/02/21 06:49:45;;;;;;;14.32;9.48;;;;;;;8.62;100.00;100462.75;5040343;28;20780;-66
2023/02/21 06:52:12;;;;;;;13.98;8.95;;;;;;;8.65;100.00;100465.22;5041302;28;20715;-66
2023/02/21 06:54:40;;;;;;;12.45;9.50;;;;;;;8.61;100.00;100469.78;5030554;28;20478;-66
2023/02/21 06:57:07;;;;;;;11.82;7.97;;;;;;;8.66;100.00;100479.19;5044958;28;20076;-66
2023/02/21 06:59:34;;;;;;;9.65;7.95;;;;;;;8.65;100.00;100488.00;5044581;28;20487;-66
2023/02/21 07:02:03;;;;;;;11.25;7.45;;;;;;;8.63;100.00;100496.78;5044084;28;20140;-66
2023/02/21 07:04:30;;;;;;;10.52;7.78;;;;;;;8.65;100.00;100496.72;5029360;28;20128;-66
2023/02/21 07:06:58;;;;;;;13.13;8.20;;;;;;;8.68;100.00;100498.31;5041170;28;20057;-66
2023/02/21 07:09:25;;;;;;;12.15;8.27;;;;;;;8.65;100.00;100498.50;5044364;28;20049;-65
2023/02/21 07:11:52;;;;;;;11.00;7.70;;;;;;;8.62;100.00;100497.72;5041938;28;20160;-65
2023/02/21 07:14:19;;;;;;;10.85;7.00;;;;;;;8.62;100.00;100504.75;5038063;28;20052;-64
2023/02/21 07:16:46;;;;;;;11.88;7.35;;;;;;;8.65;100.00;100509.84;5040529;28;20077;-64
2023/02/21 07:19:15;;;;;;;11.18;7.40;;;;;;;8.63;100.00;100506.44;5040836;28;20144;-64
2023/02/21 07:21:42;;;;;;;8.82;7.18;;;;;;;8.59;100.00;100521.47;5037330;28;20128;-64
2023/02/21 07:24:10;;;;;;;9.98;6.85;;;;;;;8.60;100.00;100523.22;5044620;28;20486;-64
2023/02/21 07:26:37;;;;;;;9.35;6.93;;;;;;;8.64;100.00;100526.50;5035940;28;20072;-64
2023/02/21 07:29:05;;;;;;;10.85;7.28;;;;;;;8.62;100.00;100523.13;5045168;28;20067;-64
2023/02/21 07:31:32;;;;;;;10.52;6.97;;;;;;;8.62;100.00;100534.47;5041372;28;20127;-64
2023/02/21 07:34:00;;;;;;;8.07;6.50;;;;;;;8.66;100.00;100536.94;5045312;28;20063;-65
2023/02/21 07:36:27;;;;;;;6.40;5.00;;;;;;;8.60;100.00;100548.56;5042402;28;20055;-65
2023/02/21 07:38:54;;;;;;;7.85;5.32;;;;;;;8.60;100.00;100545.94;5034667;28;20069;-65
2023/02/21 07:41:21;;;;;;;7.13;5.13;;;;;;;8.60;100.00;100538.94;5047269;28;20052;-64
2023/02/21 07:43:49;;;;;;;5.80;4.30;;;;;;;8.61;100.00;100537.16;5039986;28;20052;-66
2023/02/21 07:46:17;;;;;;;6.28;4.60;;;;;;;8.62;100.00;100533.59;5048739;28;20124;-65
2023/02/21 07:48:44;;;;;;;6.93;4.10;;;;;;;8.65;100.00;100535.25;5045341;28;20045;-65
2023/02/21 07:51:11;;;;;;;6.00;3.97;;;;;;;8.67;100.00;100544.72;5047790;28;20045;-66
2023/02/21 07:53:39;;;;;;;4.68;3.60;;;;;;;8.69;100.00;100528.88;5041988;28;20124;-66
2023/02/21 07:56:06;;;;;;;6.03;3.88;;;;;;;8.65;100.00;100532.63;5045211;28;20136;-66
2023/02/21 07:58:36;;;;;;;6.10;3.58;;;;;;;8.66;100.00;100531.69;5024833;28;20099;-66
2023/02/21 08:01:05;;;;;;;4.40;2.78;;;;;;;8.72;100.00;100550.56;5046573;28;20041;-65
2023/02/21 08:03:32;;;;;;;5.00;3.22;;;;;;;8.73;100.00;100548.78;5045257;28;20133;-65
2023/02/21 08:05:59;;;;;;;3.00;2.50;;;;;;;8.69;100.00;100563.00;5034794;28;20132;-66
2023/02/21 08:08:26;;;;;;;2.92;2.45;;;;;;;8.76;100.00;100565.22;5023770;28;20552;-66
2023/02/21 08:10:53;;;;;;;6.57;2.50;;;;;;;8.79;100.00;100572.09;5041280;28;20514;-65
2023/02/21 08:13:21;;;;;;;7.18;2.55;;;;;;;8.79;100.00;100565.06;5033298;28;20053;-65
2023/02/21 08:15:48;;;;;;;3.22;2.45;;;;;;;8.87;100.00;100575.16;5038511;28;20048;-65
2023/02/21 08:18:19;;;;;;;2.58;2.22;;;;;;;8.88;100.00;100574.25;5042924;28;20049;-65
2023/02/21 08:20:46;;;;;;;4.47;2.58;;;;;;;8.88;100.00;100569.00;5039365;28;20067;-66
2023/02/21 08:23:13;;;;;;;3.95;2.35;;;;;;;8.94;100.00;100567.81;5039410;28;20050;-65
2023/02/21 08:25:41;;;;;;;5.13;2.80;;;;;;;8.97;100.00;100578.16;5041783;28;20132;-66
2023/02/21 08:28:08;;;;;;;3.58;2.55;;;;;;;8.95;100.00;100578.22;5024108;28;20414;-65
2023/02/21 08:30:35;;;;;;;2.42;1.55;;;;;;;8.91;100.00;100581.94;5045601;28;20067;-66
2023/02/21 08:33:02;;;;;;;4.70;2.28;;;;;;;8.92;100.00;100583.66;5041397;28;20476;-65
2023/02/21 08:35:29;;;;;;;3.13;1.80;;;;;;;8.98;100.00;100585.94;5035490;28;20526;-65
2023/02/21 08:38:01;;;;;;;2.10;1.42;;;;;;;8.95;100.00;100593.13;5037360;28;20700;-65
2023/02/21 08:40:29;;;;;;;1.63;1.20;;;;;;;8.98;100.00;100592.97;5040608;28;20083;-66
2023/02/21 08:42:58;;;;;;;5.18;1.50;;;;;;;8.99;100.00;100592.88;5042188;28;20135;-65
2023/02/21 08:45:27;;;;;;;1.75;1.40;;;;;;;9.05;100.00;100595.22;5038499;28;20140;-66
2023/02/21 08:47:54;;;;;;;1.67;1.50;;;;;;;9.07;100.00;100601.22;5046387;28;20049;-66
2023/02/21 08:50:23;;;;;;;2.40;1.35;;;;;;;9.08;100.00;100597.66;5038215;28;20045;-66
2023/02/21 08:52:51;;;;;;;1.90;1.30;;;;;;;9.13;100.00;100600.88;5040547;28;20513;-65
2023/02/21 08:55:19;;;;;;;2.55;1.35;;;;;;;9.13;100.00;100605.28;5040135;28;20443;-65
2023/02/21 08:57:48;;;;;;;3.60;1.50;;;;;;;9.25;100.00;100594.13;5047390;28;20140;-65
2023/02/21 09:00:22;;;;;;;2.80;1.33;;;;;;;9.24;100.00;100610.84;5045262;28;20565;-64
2023/02/21 09:02:50;;;;;;;5.80;1.75;;;;;;;9.25;100.00;100606.44;5041555;28;20095;-65
2023/02/21 09:05:22;;;;;;;4.70;1.33;;;;;;;9.26;100.00;100608.13;5039337;28;20051;-65
2023/02/21 09:07:50;;;;;;;3.80;1.25;;;;;;;9.25;100.00;100604.63;5037419;28;20111;-65
2023/02/21 09:10:17;;;;;;;2.90;1.15;;;;;;;9.29;100.00;100607.97;5044730;28;20140;-65
2023/02/21 09:12:44;;;;;;;2.58;1.20;;;;;;;9.33;100.00;100609.50;5039915;28;20053;-64
2023/02/21 09:15:14;;;;;;;3.63;1.48;;;;;;;9.35;100.00;100615.50;5040976;28;20102;-65
2023/02/21 09:17:42;;;;;;;1.52;1.02;;;;;;;9.30;100.00;100617.53;5043352;28;20041;-65
2023/02/21 09:20:11;;;;;;;3.45;1.52;;;;;;;9.24;100.00;100605.56;5044517;28;20416;-65
2023/02/21 09:22:38;;;;;;;3.08;1.10;;;;;;;9.25;100.00;100612.53;5044095;28;20081;-65
2023/02/21 09:25:06;;;;;;;5.20;1.20;;;;;;;9.22;100.00;100612.69;5026609;28;20057;-66
2023/02/21 09:27:36;;;;;;;5.65;1.27;;;;;;;9.16;99.95;100609.53;5027744;28;20045;-65
2023/02/21 09:30:09;;;;;;;6.10;1.83;;;;;;;9.15;96.93;100613.94;5039005;28;20053;-65
2023/02/21 09:32:38;;;;;;;8.55;2.00;;;;;;;9.17;95.96;100625.22;5035029;28;20158;-65
2023/02/21 09:35:05;;;;;;;7.40;1.58;;;;;;;9.19;94.65;100640.91;5021882;28;20053;-65
2023/02/21 09:37:36;;;;;;;7.63;2.00;;;;;;;9.17;93.26;100627.84;5038175;28;20072;-65
2023/02/21 09:40:07;;;;;;;5.95;1.60;;;;;;;9.14;91.74;100664.78;5041842;28;20138;-65
2023/02/21 09:42:35;;;;;;;5.88;1.75;;;;;;;9.17;90.28;100637.50;5024031;28;20053;-65
2023/02/21 09:45:02;;;;;;;11.75;1.85;;;;;;;9.18;90.78;100652.31;5038035;28;20092;-65
2023/02/21 09:47:32;;;;;;;11.32;2.22;;;;;;;9.18;91.11;100652.31;5039857;28;20044;-65
2023/02/21 09:50:07;;;;;;;6.90;1.52;;;;;;;9.25;92.31;100643.19;5041463;28;20083;-65
2023/02/21 09:52:37;;;;;;;13.60;1.95;;;;;;;9.24;92.41;100655.50;5024919;28;20053;-65
2023/02/21 09:55:08;;;;;;;10.77;2.72;;;;;;;9.28;91.29;100654.41;5038279;28;20695;-64
2023/02/21 09:57:35;;;;;;;11.73;2.28;;;;;;;9.28;91.05;100650.94;5036747;28;20451;-64
2023/02/21 10:00:10;;;;;;;6.30;1.67;;;;;;;9.25;90.87;100645.81;5039651;28;20063;-65
2023/02/21 10:02:58;;;;;;;7.53;1.70;;;;;;;9.28;91.16;100645.69;5028608;28;20077;-65
2023/02/21 10:05:45;;;;;;;14.32;2.20;;;;;;;9.30;90.75;100649.91;5023577;28;20065;-65
2023/02/21 10:08:37;;;;;;;6.85;2.50;;;;;;;9.34;90.01;100654.06;5036489;28;22766;-65
2023/02/21 10:11:23;;;;;;;13.40;2.63;;;;;;;9.39;87.95;100666.94;5045931;28;20049;-65
2023/02/21 10:14:10;;;;;;;10.00;2.42;;;;;;;9.39;87.21;100662.53;5039485;28;20180;-65
2023/02/21 10:16:46;;;;;;;13.73;2.67;;;;;;;9.43;85.43;100654.50;5019820;28;20045;-65
2023/02/21 10:19:31;;;;;;;10.60;2.00;;;;;;;9.44;86.22;100654.41;5039691;28;20085;-65
2023/02/21 10:22:00;;;;;;;9.27;2.20;;;;;;;9.47;85.67;100664.78;5022858;28;20611;-65
2023/02/21 10:24:27;;;;;;;9.75;1.98;;;;;;;9.51;84.72;100662.84;5019216;28;20133;-65
2023/02/21 10:27:06;;;;;;;14.68;2.58;;;;;;;9.56;85.25;100666.91;5038610;28;20059;-65
2023/02/21 10:29:48;;;;;;;10.55;2.30;;;;;;;9.64;84.88;100669.97;5021766;28;20152;-65
2023/02/21 10:32:15;;;;;;;20.58;2.72;;;;;;;9.66;84.60;100679.53;5039681;28;20513;-65
2023/02/21 10:34:44;;;;;;;10.80;2.33;;;;;;;9.56;84.52;100680.03;5039525;28;20589;-65
2023/02/21 10:37:27;;;;;;;13.02;2.50;;;;;;;9.51;83.84;100679.44;5039690;28;20133;-65
2023/02/21 10:40:05;;;;;;;15.63;3.15;;;;;;;9.57;85.46;100680.88;5022229;28;20124;-65
2023/02/21 10:42:38;;;;;;;10.00;2.63;;;;;;;9.66;86.26;100676.91;5042322;28;20135;-65
2023/02/21 10:45:07;;;;;;;9.25;2.50;;;;;;;9.64;85.12;100672.59;5037115;28;20525;-65
2023/02/21 10:48:07;;;;;;;10.38;2.30;;;;;;;9.64;84.99;100667.34;5020904;28;20049;-65
2023/02/21 10:51:03;;;;;;;13.35;2.85;;;;;;;9.67;85.80;100675.97;5020308;28;20152;-65
2023/02/21 10:53:36;;;;;;;9.57;2.13;;;;;;;9.75;86.56;100671.16;5044020;28;20060;-65
2023/02/21 10:56:18;;;;;;;14.75;3.17;;;;;;;9.74;85.81;100678.19;5048941;28;20600;-65
2023/02/21 10:58:54;;;;;;;9.80;1.80;;;;;;;9.73;85.74;100675.66;5038946;28;20140;-65
2023/02/21 11:01:31;;;;;;;14.20;2.58;;;;;;;9.76;86.58;100678.09;5047291;28;20612;-65
2023/02/21 11:04:06;;;;;;;12.65;2.47;;;;;;;9.78;86.14;100687.63;5027767;28;20053;-65
2023/02/21 11:06:38;;;;;;;10.82;2.42;;;;;;;9.81;85.71;100676.06;5047865;28;20136;-65
2023/02/21 11:09:51;;;;;;;11.18;1.92;;;;;;;9.94;85.38;100684.13;5049531;28;20136;-65
2023/02/21 11:12:22;;;;;;;7.25;1.73;;;;;;;10.02;83.94;100679.31;5037392;22;20075;-61
2023/02/21 11:14:49;;;;;;;10.43;2.40;;;;;;;10.03;83.10;100681.00;5018791;28;20137;-59
2023/02/21 11:17:22;;;;;;;13.88;2.65;;;;;;;9.98;82.22;100685.66;5029362;28;20133;-62
2023/02/21 11:20:15;;;;;;;8.82;1.90;;;;;;;9.93;83.13;100674.56;5022144;28;20077;-61
2023/02/21 11:22:44;;;;;;;12.35;2.58;;;;;;;9.94;83.17;100668.34;5011218;28;20132;-61
2023/02/21 11:25:24;;;;;;;13.70;2.55;;;;;;;10.02;82.70;100679.31;5010471;28;20519;-60
2023/02/21 11:28:14;;;;;;;7.00;1.85;;;;;;;9.94;80.64;100677.09;5014561;28;20488;-60
2023/02/21 11:31:01;;;;;;;16.05;3.00;;;;;;;9.98;81.11;100683.88;5013268;28;20061;-60
2023/02/21 11:33:29;;;;;;;10.40;1.88;;;;;;;10.00;81.00;100689.91;5020557;28;20597;-59
2023/02/21 11:36:09;;;;;;;13.10;2.65;;;;;;;9.94;79.39;100677.09;5020561;28;20144;-59
2023/02/21 11:38:46;;;;;;;13.82;2.72;;;;;;;9.96;80.05;100664.72;4997829;28;20049;-58
2023/02/21 11:41:16;;;;;;;15.18;3.13;;;;;;;9.99;79.15;100676.84;5003750;28;20145;-59
2023/02/21 11:43:49;;;;;;;17.17;2.67;;;;;;;10.04;78.40;100674.78;5012352;28;20319;-61
2023/02/21 11:46:22;;;;;;;14.43;2.30;;;;;;;10.08;78.77;100671.06;5021823;28;20083;-60
2023/02/21 11:49:22;;;;;;;12.55;2.42;;;;;;;10.10;78.46;100674.47;5016944;28;20041;-59
2023/02/21 11:51:55;;;;;;;13.75;3.40;;;;;;;10.19;77.45;100679.22;4994189;28;20212;-59
2023/02/21 11:54:26;;;;;;;13.52;2.65;;;;;;;10.20;77.36;100693.22;4998197;28;20136;-60
2023/02/21 11:56:55;;;;;;;15.60;2.80;;;;;;;10.15;76.67;100685.56;5020040;28;20135;-60
2023/02/21 11:59:41;;;;;;;13.20;3.17;;;;;;;10.10;76.94;100682.34;4984566;28;20104;-57
2023/02/21 12:02:29;;;;;;;18.15;2.70;;;;;;;10.12;77.80;100683.94;5000331;28;20420;-60
2023/02/21 12:05:29;;;;;;;13.60;3.13;;;;;;;10.17;76.66;100682.84;5013746;28;20140;-61
2023/02/21 12:08:18;;;;;;;16.73;3.78;;;;;;;10.22;77.26;100686.06;4983941;28;20320;-59
2023/02/21 12:10:57;;;;;;;16.40;2.72;;;;;;;10.29;77.45;100687.47;5010993;28;20130;-59
2023/02/21 12:13:43;;;;;;;22.95;3.78;;;;;;;10.33;75.65;100686.34;5021593;28;20055;-59
2023/02/21 12:16:32;;;;;;;15.50;2.78;;;;;;;10.47;75.74;100702.19;5016516;28;20056;-61
2023/02/21 12:19:20;;;;;;;13.45;2.83;;;;;;;10.48;74.47;100685.47;4993541;28;20062;-60
2023/02/21 12:22:08;;;;;;;14.18;3.00;;;;;;;10.41;74.08;100688.56;5014415;28;20412;-61
2023/02/21 12:24:44;;;;;;;10.88;2.60;;;;;;;10.34;74.52;100695.94;5011708;28;20049;-62
2023/02/21 12:27:13;;;;;;;16.27;3.38;;;;;;;10.36;73.24;100699.34;5011949;28;20082;-61
2023/02/21 12:30:14;;;;;;;20.45;3.55;;;;;;;10.23;71.49;100688.63;5012887;28;20053;-61
2023/02/21 12:32:50;;;;;;;19.48;3.38;;;;;;;10.22;71.62;100699.22;5007054;28;20784;-61
2023/02/21 12:35:37;;;;;;;22.92;2.90;;;;;;;10.23;70.47;100675.47;5009818;28;20067;-61
2023/02/21 12:38:18;;;;;;;15.35;3.35;;;;;;;10.20;70.15;100693.22;5010655;28;20139;-61
2023/02/21 12:41:24;;;;;;;13.20;3.13;;;;;;;10.23;69.80;100693.03;4988193;28;20141;-61
2023/02/21 12:44:13;;;;;;;12.88;2.97;;;;;;;10.25;70.16;100693.81;5012339;28;20077;-60
2023/02/21 12:47:00;;;;;;;15.30;3.03;;;;;;;10.33;71.70;100691.63;5001350;28;20215;-58
2023/02/21 12:49:50;;;;;;;19.52;3.42;;;;;;;10.32;71.42;100682.88;5006551;28;20137;-61
2023/02/21 12:52:25;;;;;;;20.85;3.38;;;;;;;10.25;69.73;100691.19;4977336;28;20072;-62
2023/02/21 12:55:17;;;;;;;16.13;3.00;;;;;;;10.22;70.57;100686.06;4995400;28;20138;-61
2023/02/21 12:57:58;;;;;;;12.82;3.38;;;;;;;10.08;70.18;100703.47;5012644;28;20056;-61
2023/02/21 13:00:34;;;;;;;17.80;3.08;;;;;;;10.04;70.10;100690.56;5016273;28;20075;-60
2023/02/21 13:03:17;;;;;;;16.80;3.15;;;;;;;10.06;70.55;100693.97;5004349;28;20148;-59
2023/02/21 13:05:57;;;;;;;15.35;3.30;;;;;;;10.04;70.15;100687.94;5010731;28;20100;-61
2023/02/21 13:08:39;;;;;;;16.92;3.33;;;;;;;9.99;69.14;100679.47;5007907;28;20156;-61
2023/02/21 13:11:15;;;;;;;22.15;3.47;;;;;;;10.03;70.26;100683.63;4998140;28;20429;-61
2023/02/21 13:13:43;;;;;;;12.60;3.33;;;;;;;9.92;68.92;100684.22;4997262;28;21715;-60
2023/02/21 13:16:11;;;;;;;20.92;2.83;;;;;;;9.84;68.89;100684.63;5012390;28;20042;-61
2023/02/21 13:18:43;;;;;;;10.05;2.47;;;;;;;9.91;70.37;100682.53;5015896;28;20053;-59
2023/02/21 13:21:32;;;;;;;16.52;4.35;;;;;;;9.93;69.47;100691.19;5013095;28;20062;-60
2023/02/21 13:24:37;;;;;;;22.77;3.88;;;;;;;9.94;68.99;100676.25;5015073;28;20124;-62
2023/02/21 13:27:52;;;;;;;20.85;3.33;;;;;;;10.09;69.42;100685.94;5013534;28;20068;-60
2023/02/21 13:30:24;;;;;;;14.90;2.72;;;;;;;10.17;68.80;100683.69;5006325;28;20694;-61
2023/02/21 13:32:57;;;;;;;20.73;3.22;;;;;;;10.04;68.33;100690.56;4998009;28;20124;-60
2023/02/21 13:35:29;;;;;;;12.70;2.85;;;;;;;10.08;68.01;100685.06;5004701;28;20056;-60
2023/02/21 13:37:57;;;;;;;13.90;2.67;;;;;;;9.98;68.42;100676.00;5012453;28;20276;-61
2023/02/21 13:40:49;;;;;;;17.02;3.00;;;;;;;10.04;69.22;100674.78;5016541;28;20153;-59
2023/02/21 13:43:43;;;;;;;16.67;3.25;;;;;;;10.04;69.24;100683.56;5009363;28;20054;-60
2023/02/21 13:46:24;;;;;;;20.50;3.10;;;;;;;10.00;69.94;100692.56;4996633;28;20407;-61
2023/02/21 13:49:28;;;;;;;15.10;3.47;;;;;;;9.95;70.59;100676.19;4994436;28;20089;-61
2023/02/21 13:52:22;;;;;;;13.70;2.75;;;;;;;9.99;71.45;100671.56;5010927;28;20038;-59
2023/02/21 13:55:14;;;;;;;19.60;3.25;;;;;;;10.10;71.44;100679.72;5016357;28;20497;-60
2023/02/21 13:58:01;;;;;;;18.02;3.25;;;;;;;10.07;71.18;100672.84;5011723;28;20125;-61
2023/02/21 14:00:29;;;;;;;23.95;3.63;;;;;;;10.07;71.89;100678.09;4981817;28;20052;-60
2023/02/21 14:03:08;;;;;;;15.25;3.08;;;;;;;10.06;71.61;100686.94;5010601;28;20613;-61